sensor_id;sensor_type;location;lat;lon;timestamp;P1;durP1;ratioP1;P2;durP2;ratioP2
2538;SDS011;1280;49.760;9.664;2023-05-07T00:02:35;7.50;;;5.20;;
2538;SDS011;1280;49.760;9.664;2023-05-07T00:05:15;7.03;;;4.37;;
2538;SDS011;1280;49.760;9.664;2023-05-07T00:07:47;7.40;;;4.90;;
2538;SDS011;1280;49.760;9.664;2023-05-07T00:10:18;5.90;;;4.07;;
2538;SDS011;1280;49.760;9.664;2023-05-07T00:12:52;7.83;;;4.60;;
2538;SDS011;1280;49.760;9.664;2023-05-07T00:15:26;7.20;;;4.17;;
2538;SDS011;1280;49.760;9.664;2023-05-07T00:18:06;8.63;;;4.40;;
2538;SDS011;1280;49.760;9.664;2023-05-07T00:20:41;7.43;;;4.60;;
2538;SDS011;1280;49.760;9.664;2023-05-07T00:23:15;9.80;;;4.70;;
2538;SDS011;1280;49.760;9.664;2023-05-07T00:25:53;14.60;;;5.07;;
2538;SDS011;1280;49.760;9.664;2023-05-07T00:28:45;10.60;;;5.37;;
2538;SDS011;1280;49.760;9.664;2023-05-07T00:31:17;12.57;;;5.57;;
2538;SDS011;1280;49.760;9.664;2023-05-07T00:33:54;8.30;;;5.00;;
2538;SDS011;1280;49.760;9.664;2023-05-07T00:36:27;7.70;;;4.33;;
2538;SDS011;1280;49.760;9.664;2023-05-07T00:39:04;7.07;;;4.60;;
2538;SDS011;1280;49.760;9.664;2023-05-07T00:41:35;19.20;;;4.83;;
2538;SDS011;1280;49.760;9.664;2023-05-07T00:44:18;7.80;;;4.70;;
2538;SDS011;1280;49.760;9.664;2023-05-07T00:46:52;11.00;;;5.80;;
2538;SDS011;1280;49.760;9.664;2023-05-07T00:49:25;9.73;;;6.00;;
2538;SDS011;1280;49.760;9.664;2023-05-07T00:52:07;10.27;;;5.67;;
2538;SDS011;1280;49.760;9.664;2023-05-07T00:54:50;10.93;;;6.13;;
2538;SDS011;1280;49.760;9.664;2023-05-07T00:57:29;12.03;;;5.20;;
2538;SDS011;1280;49.760;9.664;2023-05-07T01:00:09;7.87;;;4.63;;
2538;SDS011;1280;49.760;9.664;2023-05-07T01:02:47;7.17;;;4.00;;
2538;SDS011;1280;49.760;9.664;2023-05-07T01:05:25;6.87;;;3.70;;
2538;SDS011;1280;49.760;9.664;2023-05-07T01:08:05;5.60;;;3.40;;
2538;SDS011;1280;49.760;9.664;2023-05-07T01:10:55;7.30;;;3.67;;
2538;SDS011;1280;49.760;9.664;2023-05-07T01:13:30;8.03;;;4.87;;
2538;SDS011;1280;49.760;9.664;2023-05-07T01:16:18;7.13;;;3.40;;
2538;SDS011;1280;49.760;9.664;2023-05-07T01:18:51;6.60;;;3.83;;
2538;SDS011;1280;49.760;9.664;2023-05-07T01:21:29;6.17;;;3.40;;
2538;SDS011;1280;49.760;9.664;2023-05-07T01:24:09;6.50;;;3.53;;
2538;SDS011;1280;49.760;9.664;2023-05-07T01:26:45;10.17;;;3.80;;
2538;SDS011;1280;49.760;9.664;2023-05-07T01:29:20;6.80;;;3.80;;
2538;SDS011;1280;49.760;9.664;2023-05-07T01:32:00;10.40;;;3.33;;
2538;SDS011;1280;49.760;9.664;2023-05-07T01:34:32;6.73;;;3.50;;
2538;SDS011;1280;49.760;9.664;2023-05-07T01:37:08;5.77;;;3.63;;
2538;SDS011;1280;49.760;9.664;2023-05-07T01:39:51;5.63;;;3.60;;
2538;SDS011;1280;49.760;9.664;2023-05-07T01:42:23;7.23;;;4.40;;
2538;SDS011;1280;49.760;9.664;2023-05-07T01:44:56;7.17;;;3.80;;
2538;SDS011;1280;49.760;9.664;2023-05-07T01:47:30;10.60;;;4.10;;
2538;SDS011;1280;49.760;9.664;2023-05-07T01:50:01;7.70;;;3.70;;
2538;SDS011;1280;49.760;9.664;2023-05-07T01:52:37;6.40;;;3.53;;
2538;SDS011;1280;49.760;9.664;2023-05-07T01:55:26;6.93;;;3.53;;
2538;SDS011;1280;49.760;9.664;2023-05-07T01:58:01;6.43;;;3.60;;
2538;SDS011;1280;49.760;9.664;2023-05-07T02:00:37;7.73;;;3.90;;
2538;SDS011;1280;49.760;9.664;2023-05-07T02:03:13;10.43;;;4.07;;
2538;SDS011;1280;49.760;9.664;2023-05-07T02:05:52;6.33;;;4.27;;
2538;SDS011;1280;49.760;9.664;2023-05-07T02:08:37;6.70;;;4.20;;
2538;SDS011;1280;49.760;9.664;2023-05-07T02:11:24;6.40;;;4.43;;
2538;SDS011;1280;49.760;9.664;2023-05-07T02:13:56;6.50;;;4.10;;
2538;SDS011;1280;49.760;9.664;2023-05-07T02:16:28;7.57;;;4.33;;
2538;SDS011;1280;49.760;9.664;2023-05-07T02:18:58;7.20;;;4.27;;
2538;SDS011;1280;49.760;9.664;2023-05-07T02:21:32;7.03;;;4.33;;
2538;SDS011;1280;49.760;9.664;2023-05-07T02:24:03;5.80;;;3.90;;
2538;SDS011;1280;49.760;9.664;2023-05-07T02:26:47;6.00;;;4.10;;
2538;SDS011;1280;49.760;9.664;2023-05-07T02:29:23;8.33;;;4.43;;
2538;SDS011;1280;49.760;9.664;2023-05-07T02:32:02;6.87;;;4.60;;
2538;SDS011;1280;49.760;9.664;2023-05-07T02:34:39;10.00;;;4.73;;
2538;SDS011;1280;49.760;9.664;2023-05-07T02:37:16;6.77;;;4.90;;
2538;SDS011;1280;49.760;9.664;2023-05-07T02:39:49;8.20;;;4.17;;
2538;SDS011;1280;49.760;9.664;2023-05-07T02:42:35;6.43;;;3.70;;
2538;SDS011;1280;49.760;9.664;2023-05-07T02:45:09;9.83;;;4.70;;
2538;SDS011;1280;49.760;9.664;2023-05-07T02:47:43;6.80;;;4.80;;
2538;SDS011;1280;49.760;9.664;2023-05-07T02:50:19;7.90;;;4.10;;
2538;SDS011;1280;49.760;9.664;2023-05-07T02:52:57;9.23;;;4.30;;
2538;SDS011;1280;49.760;9.664;2023-05-07T02:55:27;8.37;;;4.90;;
2538;SDS011;1280;49.760;9.664;2023-05-07T02:58:13;14.80;;;4.90;;
2538;SDS011;1280;49.760;9.664;2023-05-07T03:00:47;11.33;;;4.67;;
2538;SDS011;1280;49.760;9.664;2023-05-07T03:03:44;6.97;;;4.40;;
2538;SDS011;1280;49.760;9.664;2023-05-07T03:06:18;9.33;;;5.10;;
2538;SDS011;1280;49.760;9.664;2023-05-07T03:08:49;6.43;;;4.60;;
2538;SDS011;1280;49.760;9.664;2023-05-07T03:11:30;7.20;;;4.73;;
2538;SDS011;1280;49.760;9.664;2023-05-07T03:14:13;7.80;;;4.40;;
2538;SDS011;1280;49.760;9.664;2023-05-07T03:16:51;8.50;;;4.57;;
2538;SDS011;1280;49.760;9.664;2023-05-07T03:19:31;6.90;;;4.40;;
2538;SDS011;1280;49.760;9.664;2023-05-07T03:22:01;8.20;;;4.63;;
2538;SDS011;1280;49.760;9.664;2023-05-07T03:24:36;7.83;;;4.77;;
2538;SDS011;1280;49.760;9.664;2023-05-07T03:27:13;7.10;;;4.37;;
2538;SDS011;1280;49.760;9.664;2023-05-07T03:29:47;10.00;;;4.50;;
2538;SDS011;1280;49.760;9.664;2023-05-07T03:32:15;6.33;;;4.10;;
2538;SDS011;1280;49.760;9.664;2023-05-07T03:34:53;5.87;;;4.10;;
2538;SDS011;1280;49.760;9.664;2023-05-07T03:37:31;8.77;;;4.63;;
2538;SDS011;1280;49.760;9.664;2023-05-07T03:40:05;7.53;;;4.50;;
2538;SDS011;1280;49.760;9.664;2023-05-07T03:42:51;6.60;;;4.47;;
2538;SDS011;1280;49.760;9.664;2023-05-07T03:45:33;7.20;;;4.10;;
2538;SDS011;1280;49.760;9.664;2023-05-07T03:48:16;9.50;;;4.20;;
2538;SDS011;1280;49.760;9.664;2023-05-07T03:50:57;7.57;;;4.10;;
2538;SDS011;1280;49.760;9.664;2023-05-07T03:53:33;11.63;;;4.80;;
2538;SDS011;1280;49.760;9.664;2023-05-07T03:56:06;9.13;;;4.40;;
2538;SDS011;1280;49.760;9.664;2023-05-07T03:58:47;10.37;;;4.40;;
2538;SDS011;1280;49.760;9.664;2023-05-07T04:01:24;6.70;;;4.13;;
2538;SDS011;1280;49.760;9.664;2023-05-07T04:04:02;6.60;;;4.03;;
2538;SDS011;1280;49.760;9.664;2023-05-07T04:06:45;7.23;;;4.70;;
2538;SDS011;1280;49.760;9.664;2023-05-07T04:09:16;6.40;;;3.70;;
2538;SDS011;1280;49.760;9.664;2023-05-07T04:11:49;7.13;;;3.87;;
2538;SDS011;1280;49.760;9.664;2023-05-07T04:14:31;7.40;;;3.53;;
2538;SDS011;1280;49.760;9.664;2023-05-07T04:17:21;6.93;;;4.10;;
2538;SDS011;1280;49.760;9.664;2023-05-07T04:19:54;8.20;;;4.20;;
2538;SDS011;1280;49.760;9.664;2023-05-07T04:22:37;7.30;;;5.00;;
2538;SDS011;1280;49.760;9.664;2023-05-07T04:25:11;8.33;;;4.57;;
2538;SDS011;1280;49.760;9.664;2023-05-07T04:27:48;10.43;;;5.10;;
2538;SDS011;1280;49.760;9.664;2023-05-07T04:30:26;8.10;;;4.17;;
2538;SDS011;1280;49.760;9.664;2023-05-07T04:33:04;8.97;;;4.70;;
2538;SDS011;1280;49.760;9.664;2023-05-07T04:35:41;6.97;;;3.50;;
2538;SDS011;1280;49.760;9.664;2023-05-07T04:38:16;7.17;;;4.00;;
2538;SDS011;1280;49.760;9.664;2023-05-07T04:40:53;6.80;;;4.10;;
2538;SDS011;1280;49.760;9.664;2023-05-07T04:43:25;12.03;;;4.03;;
2538;SDS011;1280;49.760;9.664;2023-05-07T04:46:01;7.47;;;4.07;;
2538;SDS011;1280;49.760;9.664;2023-05-07T04:48:37;6.63;;;4.10;;
2538;SDS011;1280;49.760;9.664;2023-05-07T04:51:12;7.10;;;4.37;;
2538;SDS011;1280;49.760;9.664;2023-05-07T04:53:50;7.57;;;4.40;;
2538;SDS011;1280;49.760;9.664;2023-05-07T04:56:27;8.03;;;4.17;;
2538;SDS011;1280;49.760;9.664;2023-05-07T04:59:09;7.60;;;4.70;;
2538;SDS011;1280;49.760;9.664;2023-05-07T05:01:44;8.23;;;4.27;;
2538;SDS011;1280;49.760;9.664;2023-05-07T05:04:27;7.30;;;4.70;;
2538;SDS011;1280;49.760;9.664;2023-05-07T05:07:06;5.80;;;4.10;;
2538;SDS011;1280;49.760;9.664;2023-05-07T05:09:38;8.67;;;4.30;;
2538;SDS011;1280;49.760;9.664;2023-05-07T05:12:08;8.83;;;4.57;;
2538;SDS011;1280;49.760;9.664;2023-05-07T05:14:48;9.33;;;4.50;;
2538;SDS011;1280;49.760;9.664;2023-05-07T05:17:25;7.50;;;4.60;;
2538;SDS011;1280;49.760;9.664;2023-05-07T05:20:09;7.70;;;4.20;;
2538;SDS011;1280;49.760;9.664;2023-05-07T05:22:46;6.33;;;4.47;;
2538;SDS011;1280;49.760;9.664;2023-05-07T05:25:28;8.80;;;5.23;;
2538;SDS011;1280;49.760;9.664;2023-05-07T05:28:00;7.60;;;4.80;;
2538;SDS011;1280;49.760;9.664;2023-05-07T05:30:35;8.47;;;5.50;;
2538;SDS011;1280;49.760;9.664;2023-05-07T05:33:13;12.17;;;6.10;;
2538;SDS011;1280;49.760;9.664;2023-05-07T05:35:58;9.63;;;5.87;;
2538;SDS011;1280;49.760;9.664;2023-05-07T05:38:30;8.63;;;5.30;;
2538;SDS011;1280;49.760;9.664;2023-05-07T05:41:11;8.63;;;6.13;;
2538;SDS011;1280;49.760;9.664;2023-05-07T05:43:43;8.57;;;6.20;;
2538;SDS011;1280;49.760;9.664;2023-05-07T05:46:18;7.80;;;5.80;;
2538;SDS011;1280;49.760;9.664;2023-05-07T05:48:53;10.70;;;7.00;;
2538;SDS011;1280;49.760;9.664;2023-05-07T05:51:33;8.03;;;6.30;;
2538;SDS011;1280;49.760;9.664;2023-05-07T05:54:06;8.73;;;6.60;;
2538;SDS011;1280;49.760;9.664;2023-05-07T05:56:36;12.83;;;7.80;;
2538;SDS011;1280;49.760;9.664;2023-05-07T05:59:12;11.70;;;9.40;;
2538;SDS011;1280;49.760;9.664;2023-05-07T06:02:02;14.70;;;9.27;;
2538;SDS011;1280;49.760;9.664;2023-05-07T06:04:36;13.53;;;8.30;;
2538;SDS011;1280;49.760;9.664;2023-05-07T06:07:20;11.20;;;9.30;;
2538;SDS011;1280;49.760;9.664;2023-05-07T06:09:51;11.83;;;8.50;;
2538;SDS011;1280;49.760;9.664;2023-05-07T06:12:30;11.47;;;8.97;;
2538;SDS011;1280;49.760;9.664;2023-05-07T06:15:03;12.17;;;8.87;;
2538;SDS011;1280;49.760;9.664;2023-05-07T06:17:46;18.17;;;10.87;;
2538;SDS011;1280;49.760;9.664;2023-05-07T06:20:28;10.97;;;9.30;;
2538;SDS011;1280;49.760;9.664;2023-05-07T06:23:02;11.80;;;9.57;;
2538;SDS011;1280;49.760;9.664;2023-05-07T06:25:47;11.40;;;8.80;;
2538;SDS011;1280;49.760;9.664;2023-05-07T06:28:28;13.27;;;8.73;;
2538;SDS011;1280;49.760;9.664;2023-05-07T06:31:12;12.07;;;9.30;;
2538;SDS011;1280;49.760;9.664;2023-05-07T06:34:02;11.07;;;9.40;;
2538;SDS011;1280;49.760;9.664;2023-05-07T06:36:46;10.43;;;8.60;;
2538;SDS011;1280;49.760;9.664;2023-05-07T06:39:43;16.63;;;9.00;;
2538;SDS011;1280;49.760;9.664;2023-05-07T06:42:26;11.37;;;8.77;;
2538;SDS011;1280;49.760;9.664;2023-05-07T06:45:43;13.10;;;9.30;;
2538;SDS011;1280;49.760;9.664;2023-05-07T06:48:17;11.80;;;9.10;;
2538;SDS011;1280;49.760;9.664;2023-05-07T06:51:00;10.90;;;9.03;;
2538;SDS011;1280;49.760;9.664;2023-05-07T06:53:33;12.40;;;9.13;;
2538;SDS011;1280;49.760;9.664;2023-05-07T06:56:07;12.10;;;9.40;;
2538;SDS011;1280;49.760;9.664;2023-05-07T06:58:43;11.30;;;8.73;;
2538;SDS011;1280;49.760;9.664;2023-05-07T07:01:18;12.47;;;9.37;;
2538;SDS011;1280;49.760;9.664;2023-05-07T07:03:53;14.23;;;9.27;;
2538;SDS011;1280;49.760;9.664;2023-05-07T07:06:31;14.60;;;10.40;;
2538;SDS011;1280;49.760;9.664;2023-05-07T07:09:08;11.97;;;10.03;;
2538;SDS011;1280;49.760;9.664;2023-05-07T07:11:41;11.00;;;8.80;;
2538;SDS011;1280;49.760;9.664;2023-05-07T07:14:12;12.20;;;9.17;;
2538;SDS011;1280;49.760;9.664;2023-05-07T07:16:47;11.60;;;8.10;;
2538;SDS011;1280;49.760;9.664;2023-05-07T07:19:25;10.27;;;8.67;;
2538;SDS011;1280;49.760;9.664;2023-05-07T07:21:59;13.27;;;9.67;;
2538;SDS011;1280;49.760;9.664;2023-05-07T07:24:33;12.70;;;9.20;;
2538;SDS011;1280;49.760;9.664;2023-05-07T07:27:07;12.47;;;8.70;;
2538;SDS011;1280;49.760;9.664;2023-05-07T07:29:38;13.73;;;9.50;;
2538;SDS011;1280;49.760;9.664;2023-05-07T07:32:10;13.23;;;9.60;;
2538;SDS011;1280;49.760;9.664;2023-05-07T07:34:45;13.13;;;10.13;;
2538;SDS011;1280;49.760;9.664;2023-05-07T07:37:23;12.67;;;9.60;;
2538;SDS011;1280;49.760;9.664;2023-05-07T07:39:59;11.50;;;8.73;;
2538;SDS011;1280;49.760;9.664;2023-05-07T07:42:39;12.90;;;9.57;;
2538;SDS011;1280;49.760;9.664;2023-05-07T07:45:13;11.60;;;9.10;;
2538;SDS011;1280;49.760;9.664;2023-05-07T07:47:47;15.27;;;12.43;;
2538;SDS011;1280;49.760;9.664;2023-05-07T07:50:22;11.50;;;10.30;;
2538;SDS011;1280;49.760;9.664;2023-05-07T07:53:14;12.70;;;9.70;;
2538;SDS011;1280;49.760;9.664;2023-05-07T07:55:46;11.13;;;9.43;;
2538;SDS011;1280;49.760;9.664;2023-05-07T07:58:28;12.43;;;9.70;;
2538;SDS011;1280;49.760;9.664;2023-05-07T08:01:03;13.63;;;9.93;;
2538;SDS011;1280;49.760;9.664;2023-05-07T08:03:41;12.70;;;10.17;;
2538;SDS011;1280;49.760;9.664;2023-05-07T08:06:14;13.77;;;10.17;;
2538;SDS011;1280;49.760;9.664;2023-05-07T08:08:46;15.13;;;12.03;;
2538;SDS011;1280;49.760;9.664;2023-05-07T08:11:25;15.90;;;12.43;;
2538;SDS011;1280;49.760;9.664;2023-05-07T08:14:03;14.23;;;10.50;;
2538;SDS011;1280;49.760;9.664;2023-05-07T08:16:37;12.60;;;9.77;;
2538;SDS011;1280;49.760;9.664;2023-05-07T08:19:13;12.80;;;10.13;;
2538;SDS011;1280;49.760;9.664;2023-05-07T08:21:44;15.23;;;10.00;;
2538;SDS011;1280;49.760;9.664;2023-05-07T08:24:22;15.80;;;11.07;;
2538;SDS011;1280;49.760;9.664;2023-05-07T08:26:55;13.33;;;10.37;;
2538;SDS011;1280;49.760;9.664;2023-05-07T08:29:40;15.83;;;10.80;;
2538;SDS011;1280;49.760;9.664;2023-05-07T08:32:20;14.10;;;10.63;;
2538;SDS011;1280;49.760;9.664;2023-05-07T08:34:53;14.00;;;10.40;;
2538;SDS011;1280;49.760;9.664;2023-05-07T08:37:23;13.40;;;11.10;;
2538;SDS011;1280;49.760;9.664;2023-05-07T08:40:01;14.43;;;11.20;;
2538;SDS011;1280;49.760;9.664;2023-05-07T08:42:39;15.03;;;11.20;;
2538;SDS011;1280;49.760;9.664;2023-05-07T08:45:11;14.60;;;11.17;;
2538;SDS011;1280;49.760;9.664;2023-05-07T08:47:54;13.47;;;11.10;;
2538;SDS011;1280;49.760;9.664;2023-05-07T08:50:35;12.97;;;10.40;;
2538;SDS011;1280;49.760;9.664;2023-05-07T08:53:16;17.63;;;11.00;;
2538;SDS011;1280;49.760;9.664;2023-05-07T08:55:51;13.57;;;11.30;;
2538;SDS011;1280;49.760;9.664;2023-05-07T08:58:29;15.17;;;11.00;;
2538;SDS011;1280;49.760;9.664;2023-05-07T09:01:05;11.10;;;9.57;;
2538;SDS011;1280;49.760;9.664;2023-05-07T09:03:53;14.57;;;10.27;;
2538;SDS011;1280;49.760;9.664;2023-05-07T09:06:28;13.67;;;11.13;;
2538;SDS011;1280;49.760;9.664;2023-05-07T09:09:13;15.30;;;11.37;;
2538;SDS011;1280;49.760;9.664;2023-05-07T09:11:54;14.60;;;12.17;;
2538;SDS011;1280;49.760;9.664;2023-05-07T09:14:35;14.00;;;10.80;;
2538;SDS011;1280;49.760;9.664;2023-05-07T09:17:10;13.80;;;10.93;;
2538;SDS011;1280;49.760;9.664;2023-05-07T09:19:45;14.50;;;11.80;;
2538;SDS011;1280;49.760;9.664;2023-05-07T09:22:20;16.10;;;11.30;;
2538;SDS011;1280;49.760;9.664;2023-05-07T09:24:56;15.23;;;11.53;;
2538;SDS011;1280;49.760;9.664;2023-05-07T09:27:34;13.77;;;10.57;;
2538;SDS011;1280;49.760;9.664;2023-05-07T09:30:11;15.17;;;12.07;;
2538;SDS011;1280;49.760;9.664;2023-05-07T09:32:55;13.27;;;11.27;;
2538;SDS011;1280;49.760;9.664;2023-05-07T09:35:30;12.90;;;10.40;;
2538;SDS011;1280;49.760;9.664;2023-05-07T09:38:08;13.63;;;11.43;;
2538;SDS011;1280;49.760;9.664;2023-05-07T09:40:42;17.50;;;11.30;;
2538;SDS011;1280;49.760;9.664;2023-05-07T09:43:16;17.60;;;11.70;;
2538;SDS011;1280;49.760;9.664;2023-05-07T09:45:56;13.73;;;10.90;;
2538;SDS011;1280;49.760;9.664;2023-05-07T09:48:42;14.20;;;10.63;;
2538;SDS011;1280;49.760;9.664;2023-05-07T09:51:18;13.83;;;10.03;;
2538;SDS011;1280;49.760;9.664;2023-05-07T09:53:58;13.00;;;9.97;;
2538;SDS011;1280;49.760;9.664;2023-05-07T09:56:39;13.50;;;9.97;;
2538;SDS011;1280;49.760;9.664;2023-05-07T09:59:15;14.00;;;10.40;;
2538;SDS011;1280;49.760;9.664;2023-05-07T10:02:00;13.97;;;10.97;;
2538;SDS011;1280;49.760;9.664;2023-05-07T10:04:45;12.80;;;10.60;;
2538;SDS011;1280;49.760;9.664;2023-05-07T10:07:22;13.27;;;10.93;;
2538;SDS011;1280;49.760;9.664;2023-05-07T10:10:08;15.50;;;11.57;;
2538;SDS011;1280;49.760;9.664;2023-05-07T10:12:42;12.20;;;9.70;;
2538;SDS011;1280;49.760;9.664;2023-05-07T10:15:31;11.67;;;9.87;;
2538;SDS011;1280;49.760;9.664;2023-05-07T10:18:07;13.10;;;10.83;;
2538;SDS011;1280;49.760;9.664;2023-05-07T10:20:42;12.30;;;9.70;;
2538;SDS011;1280;49.760;9.664;2023-05-07T10:23:21;13.47;;;10.33;;
2538;SDS011;1280;49.760;9.664;2023-05-07T10:25:57;12.27;;;9.07;;
2538;SDS011;1280;49.760;9.664;2023-05-07T10:28:31;14.27;;;10.20;;
2538;SDS011;1280;49.760;9.664;2023-05-07T10:31:15;13.17;;;10.30;;
2538;SDS011;1280;49.760;9.664;2023-05-07T10:34:13;13.00;;;10.40;;
2538;SDS011;1280;49.760;9.664;2023-05-07T10:36:56;13.37;;;9.57;;
2538;SDS011;1280;49.760;9.664;2023-05-07T10:39:34;13.37;;;9.87;;
2538;SDS011;1280;49.760;9.664;2023-05-07T10:42:10;10.67;;;8.83;;
2538;SDS011;1280;49.760;9.664;2023-05-07T10:44:48;16.53;;;9.63;;
2538;SDS011;1280;49.760;9.664;2023-05-07T10:47:28;17.53;;;11.20;;
2538;SDS011;1280;49.760;9.664;2023-05-07T11:02:17;15.80;;;9.70;;
2538;SDS011;1280;49.760;9.664;2023-05-07T11:05:20;13.00;;;9.23;;
2538;SDS011;1280;49.760;9.664;2023-05-07T11:08:14;15.60;;;10.20;;
2538;SDS011;1280;49.760;9.664;2023-05-07T11:11:14;12.83;;;8.90;;
2538;SDS011;1280;49.760;9.664;2023-05-07T11:14:07;12.20;;;9.57;;
2538;SDS011;1280;49.760;9.664;2023-05-07T11:17:01;12.00;;;8.53;;
2538;SDS011;1280;49.760;9.664;2023-05-07T11:19:50;11.97;;;7.87;;
2538;SDS011;1280;49.760;9.664;2023-05-07T11:22:58;11.50;;;7.47;;
2538;SDS011;1280;49.760;9.664;2023-05-07T11:25:39;10.17;;;8.57;;
2538;SDS011;1280;49.760;9.664;2023-05-07T11:28:23;10.40;;;7.90;;
2538;SDS011;1280;49.760;9.664;2023-05-07T11:31:03;12.67;;;8.10;;
2538;SDS011;1280;49.760;9.664;2023-05-07T11:33:47;12.53;;;7.30;;
2538;SDS011;1280;49.760;9.664;2023-05-07T11:36:23;10.80;;;7.47;;
2538;SDS011;1280;49.760;9.664;2023-05-07T11:38:54;9.00;;;7.27;;
2538;SDS011;1280;49.760;9.664;2023-05-07T11:41:33;12.10;;;8.50;;
2538;SDS011;1280;49.760;9.664;2023-05-07T11:44:15;9.90;;;7.30;;
2538;SDS011;1280;49.760;9.664;2023-05-07T11:46:52;9.70;;;7.50;;
2538;SDS011;1280;49.760;9.664;2023-05-07T11:49:24;11.33;;;7.40;;
2538;SDS011;1280;49.760;9.664;2023-05-07T11:52:01;10.27;;;6.67;;
2538;SDS011;1280;49.760;9.664;2023-05-07T11:54:48;12.20;;;7.23;;
2538;SDS011;1280;49.760;9.664;2023-05-07T11:57:22;10.50;;;6.90;;
2538;SDS011;1280;49.760;9.664;2023-05-07T12:00:06;8.17;;;6.40;;
2538;SDS011;1280;49.760;9.664;2023-05-07T12:02:52;10.40;;;6.80;;
2538;SDS011;1280;49.760;9.664;2023-05-07T12:05:29;11.07;;;7.10;;
2538;SDS011;1280;49.760;9.664;2023-05-07T12:08:03;9.70;;;6.20;;
2538;SDS011;1280;49.760;9.664;2023-05-07T12:10:40;10.57;;;6.80;;
2538;SDS011;1280;49.760;9.664;2023-05-07T12:13:17;11.17;;;6.80;;
2538;SDS011;1280;49.760;9.664;2023-05-07T12:15:56;9.23;;;6.93;;
2538;SDS011;1280;49.760;9.664;2023-05-07T12:18:34;10.80;;;6.70;;
2538;SDS011;1280;49.760;9.664;2023-05-07T12:21:05;10.20;;;6.70;;
2538;SDS011;1280;49.760;9.664;2023-05-07T12:23:37;9.37;;;6.67;;
2538;SDS011;1280;49.760;9.664;2023-05-07T12:26:17;7.83;;;5.60;;
2538;SDS011;1280;49.760;9.664;2023-05-07T12:28:50;7.97;;;5.70;;
2538;SDS011;1280;49.760;9.664;2023-05-07T12:31:29;8.93;;;5.80;;
2538;SDS011;1280;49.760;9.664;2023-05-07T12:34:02;8.63;;;5.90;;
2538;SDS011;1280;49.760;9.664;2023-05-07T12:36:37;8.80;;;5.60;;
2538;SDS011;1280;49.760;9.664;2023-05-07T12:39:18;10.13;;;6.07;;
2538;SDS011;1280;49.760;9.664;2023-05-07T12:41:55;11.60;;;6.30;;
2538;SDS011;1280;49.760;9.664;2023-05-07T12:44:31;10.10;;;5.20;;
2538;SDS011;1280;49.760;9.664;2023-05-07T12:47:09;8.50;;;5.90;;
2538;SDS011;1280;49.760;9.664;2023-05-07T12:49:45;6.90;;;4.93;;
2538;SDS011;1280;49.760;9.664;2023-05-07T12:52:25;8.90;;;5.50;;
2538;SDS011;1280;49.760;9.664;2023-05-07T12:54:56;7.80;;;6.00;;
2538;SDS011;1280;49.760;9.664;2023-05-07T12:57:39;8.63;;;6.17;;
2538;SDS011;1280;49.760;9.664;2023-05-07T13:00:32;8.37;;;5.60;;
2538;SDS011;1280;49.760;9.664;2023-05-07T13:03:11;9.40;;;5.07;;
2538;SDS011;1280;49.760;9.664;2023-05-07T13:05:43;7.53;;;4.73;;
2538;SDS011;1280;49.760;9.664;2023-05-07T13:08:28;9.87;;;5.23;;
2538;SDS011;1280;49.760;9.664;2023-05-07T13:11:02;7.43;;;4.57;;
2538;SDS011;1280;49.760;9.664;2023-05-07T13:13:44;6.97;;;4.50;;
2538;SDS011;1280;49.760;9.664;2023-05-07T13:16:21;6.70;;;4.83;;
2538;SDS011;1280;49.760;9.664;2023-05-07T13:19:10;7.50;;;4.33;;
2538;SDS011;1280;49.760;9.664;2023-05-07T13:21:48;7.80;;;4.90;;
2538;SDS011;1280;49.760;9.664;2023-05-07T13:24:26;10.03;;;5.13;;
2538;SDS011;1280;49.760;9.664;2023-05-07T13:26:58;7.10;;;4.50;;
2538;SDS011;1280;49.760;9.664;2023-05-07T13:29:34;7.60;;;4.77;;
2538;SDS011;1280;49.760;9.664;2023-05-07T13:32:06;8.20;;;4.10;;
2538;SDS011;1280;49.760;9.664;2023-05-07T13:34:48;7.07;;;4.00;;
2538;SDS011;1280;49.760;9.664;2023-05-07T13:37:18;5.90;;;3.70;;
2538;SDS011;1280;49.760;9.664;2023-05-07T13:39:49;6.33;;;3.83;;
2538;SDS011;1280;49.760;9.664;2023-05-07T13:42:29;6.77;;;4.30;;
2538;SDS011;1280;49.760;9.664;2023-05-07T13:45:02;5.90;;;3.80;;
2538;SDS011;1280;49.760;9.664;2023-05-07T13:47:39;5.90;;;3.30;;
2538;SDS011;1280;49.760;9.664;2023-05-07T13:50:18;8.20;;;3.80;;
2538;SDS011;1280;49.760;9.664;2023-05-07T13:52:50;5.40;;;3.13;;
2538;SDS011;1280;49.760;9.664;2023-05-07T13:55:21;6.43;;;3.60;;
2538;SDS011;1280;49.760;9.664;2023-05-07T13:57:56;6.37;;;3.63;;
2538;SDS011;1280;49.760;9.664;2023-05-07T14:00:26;5.60;;;3.40;;
2538;SDS011;1280;49.760;9.664;2023-05-07T14:03:04;5.67;;;3.40;;
2538;SDS011;1280;49.760;9.664;2023-05-07T14:05:40;6.60;;;3.60;;
2538;SDS011;1280;49.760;9.664;2023-05-07T14:08:19;8.20;;;3.40;;
2538;SDS011;1280;49.760;9.664;2023-05-07T14:11:01;6.10;;;3.53;;
2538;SDS011;1280;49.760;9.664;2023-05-07T14:13:38;6.10;;;3.80;;
2538;SDS011;1280;49.760;9.664;2023-05-07T14:16:17;6.13;;;3.83;;
2538;SDS011;1280;49.760;9.664;2023-05-07T14:18:54;6.77;;;3.80;;
2538;SDS011;1280;49.760;9.664;2023-05-07T14:21:37;6.47;;;3.30;;
2538;SDS011;1280;49.760;9.664;2023-05-07T14:24:10;6.03;;;2.83;;
2538;SDS011;1280;49.760;9.664;2023-05-07T14:26:39;7.37;;;3.40;;
2538;SDS011;1280;49.760;9.664;2023-05-07T14:29:13;5.60;;;3.37;;
2538;SDS011;1280;49.760;9.664;2023-05-07T14:31:52;7.80;;;2.90;;
2538;SDS011;1280;49.760;9.664;2023-05-07T14:34:24;15.00;;;3.90;;
2538;SDS011;1280;49.760;9.664;2023-05-07T14:37:03;9.27;;;3.70;;
2538;SDS011;1280;49.760;9.664;2023-05-07T14:39:44;7.63;;;3.00;;
2538;SDS011;1280;49.760;9.664;2023-05-07T14:42:17;8.73;;;4.43;;
2538;SDS011;1280;49.760;9.664;2023-05-07T14:44:47;6.70;;;3.50;;
2538;SDS011;1280;49.760;9.664;2023-05-07T14:47:24;9.50;;;3.20;;
2538;SDS011;1280;49.760;9.664;2023-05-07T14:50:01;6.87;;;3.00;;
2538;SDS011;1280;49.760;9.664;2023-05-07T14:52:35;7.67;;;3.07;;
2538;SDS011;1280;49.760;9.664;2023-05-07T14:55:05;7.03;;;3.27;;
2538;SDS011;1280;49.760;9.664;2023-05-07T14:57:44;5.10;;;3.00;;
2538;SDS011;1280;49.760;9.664;2023-05-07T15:00:19;6.70;;;3.67;;
2538;SDS011;1280;49.760;9.664;2023-05-07T15:02:53;6.23;;;2.80;;
2538;SDS011;1280;49.760;9.664;2023-05-07T15:05:32;6.67;;;4.00;;
2538;SDS011;1280;49.760;9.664;2023-05-07T15:08:09;6.13;;;3.23;;
2538;SDS011;1280;49.760;9.664;2023-05-07T15:10:37;7.80;;;4.63;;
2538;SDS011;1280;49.760;9.664;2023-05-07T15:13:08;6.03;;;3.33;;
2538;SDS011;1280;49.760;9.664;2023-05-07T15:15:44;5.47;;;3.50;;
2538;SDS011;1280;49.760;9.664;2023-05-07T15:18:14;5.97;;;3.60;;
2538;SDS011;1280;49.760;9.664;2023-05-07T15:20:49;6.00;;;3.30;;
2538;SDS011;1280;49.760;9.664;2023-05-07T15:23:23;5.93;;;3.43;;
2538;SDS011;1280;49.760;9.664;2023-05-07T15:25:51;6.30;;;3.47;;
2538;SDS011;1280;49.760;9.664;2023-05-07T15:28:30;6.90;;;4.83;;
2538;SDS011;1280;49.760;9.664;2023-05-07T15:31:07;6.40;;;4.10;;
2538;SDS011;1280;49.760;9.664;2023-05-07T15:33:37;9.00;;;4.90;;
2538;SDS011;1280;49.760;9.664;2023-05-07T15:36:08;8.93;;;4.83;;
2538;SDS011;1280;49.760;9.664;2023-05-07T15:38:56;11.23;;;7.27;;
2538;SDS011;1280;49.760;9.664;2023-05-07T15:41:34;9.53;;;7.00;;
2538;SDS011;1280;49.760;9.664;2023-05-07T15:44:05;8.50;;;5.20;;
2538;SDS011;1280;49.760;9.664;2023-05-07T15:46:43;10.30;;;4.90;;
2538;SDS011;1280;49.760;9.664;2023-05-07T15:49:22;8.30;;;5.33;;
2538;SDS011;1280;49.760;9.664;2023-05-07T15:52:04;7.60;;;5.70;;
2538;SDS011;1280;49.760;9.664;2023-05-07T15:54:41;8.30;;;5.60;;
2538;SDS011;1280;49.760;9.664;2023-05-07T15:57:15;8.10;;;4.73;;
2538;SDS011;1280;49.760;9.664;2023-05-07T15:59:53;7.83;;;5.50;;
2538;SDS011;1280;49.760;9.664;2023-05-07T16:02:50;8.23;;;5.10;;
2538;SDS011;1280;49.760;9.664;2023-05-07T16:05:31;9.37;;;5.30;;
2538;SDS011;1280;49.760;9.664;2023-05-07T16:08:09;7.87;;;4.97;;
2538;SDS011;1280;49.760;9.664;2023-05-07T16:10:52;9.97;;;5.60;;
2538;SDS011;1280;49.760;9.664;2023-05-07T16:13:22;6.53;;;4.87;;
2538;SDS011;1280;49.760;9.664;2023-05-07T16:16:03;7.50;;;4.73;;
2538;SDS011;1280;49.760;9.664;2023-05-07T16:18:34;6.90;;;4.40;;
2538;SDS011;1280;49.760;9.664;2023-05-07T16:21:05;8.03;;;5.23;;
2538;SDS011;1280;49.760;9.664;2023-05-07T16:23:35;6.47;;;4.70;;
2538;SDS011;1280;49.760;9.664;2023-05-07T16:26:12;9.13;;;5.07;;